Time;durP1;ratioP1;P1;durP2;ratioP2;P2;SDS_P1;SDS_P2;PMS_P1;PMS_P2;Temp;Humidity;BMP_temperature;BMP_pressure;BME280_temperature;BME280_humidity;BME280_pressure;Samples;Min_cycle;Max_cycle;Signal;HPM_P1;HPM_P2
2021/03/16 00:02:06;;;;;;;2.30;0.67;;;5.80;99.90;;;;;;5072124;28;20628;-61
2021/03/16 00:04:32;;;;;;;29.33;1.70;;;5.80;99.90;;;;;;5073033;28;20690;-61
2021/03/16 00:06:58;;;;;;;7.20;2.40;;;5.80;99.90;;;;;;5078715;28;20195;-61
2021/03/16 00:09:24;;;;;;;3.90;1.00;;;5.70;99.90;;;;;;5081104;28;20230;-62
2021/03/16 00:11:50;;;;;;;12.70;1.60;;;5.70;99.90;;;;;;5059452;28;20982;-61
2021/03/16 00:14:16;;;;;;;6.10;2.33;;;5.70;99.90;;;;;;5080127;28;20230;-63
2021/03/16 00:16:41;;;;;;;3.78;1.67;;;5.70;99.90;;;;;;5067340;28;20774;-64
2021/03/16 00:19:07;;;;;;;5.60;1.43;;;5.60;99.90;;;;;;5069398;28;20211;-63
2021/03/16 00:21:33;;;;;;;3.00;2.43;;;5.70;99.90;;;;;;5072469;28;20180;-63
2021/03/16 00:23:59;;;;;;;5.60;1.23;;;5.80;99.90;;;;;;5069816;28;20251;-62
2021/03/16 00:26:24;;;;;;;4.27;1.30;;;5.80;99.90;;;;;;5073411;28;20590;-62
2021/03/16 00:28:50;;;;;;;3.83;0.77;;;5.80;99.90;;;;;;5081053;28;20180;-62
2021/03/16 00:31:16;;;;;;;2.37;0.73;;;5.90;99.90;;;;;;5081638;28;20263;-61
2021/03/16 00:33:41;;;;;;;3.43;0.83;;;5.90;99.90;;;;;;5073186;28;20200;-61
2021/03/16 00:36:07;;;;;;;2.23;0.63;;;6.00;99.90;;;;;;5078985;28;20303;-62
2021/03/16 00:38:33;;;;;;;3.30;1.43;;;6.00;99.90;;;;;;5080343;28;20214;-62
2021/03/16 00:40:59;;;;;;;3.30;1.30;;;6.00;99.90;;;;;;5070313;28;20173;-61
2021/03/16 00:43:24;;;;;;;3.70;1.60;;;6.00;99.90;;;;;;5083902;28;20461;-62
2021/03/16 00:45:50;;;;;;;1.87;0.27;;;6.00;99.90;;;;;;5080467;28;20586;-62
2021/03/16 00:48:17;;;;;;;1.97;0.50;;;6.00;99.90;;;;;;5086583;28;20207;-63
2021/03/16 00:50:43;;;;;;;2.45;0.95;;;6.00;99.90;;;;;;5081578;28;20256;-61
2021/03/16 00:53:10;;;;;;;1.90;0.30;;;5.90;99.90;;;;;;5074764;28;20220;-62
2021/03/16 00:55:36;;;;;;;2.00;0.40;;;5.90;99.90;;;;;;5078005;28;20177;-62
2021/03/16 00:58:03;;;;;;;3.35;1.67;;;5.90;99.90;;;;;;5078623;28;20531;-62
2021/03/16 01:00:29;;;;;;;1.80;0.20;;;5.80;99.90;;;;;;5071066;28;20740;-62
2021/03/16 01:02:55;;;;;;;2.55;1.20;;;5.90;99.90;;;;;;5079752;28;20180;-61
2021/03/16 01:05:21;;;;;;;1.85;0.20;;;5.90;99.90;;;;;;5084800;28;20184;-62
2021/03/16 01:07:47;;;;;;;5.90;1.50;;;5.80;99.90;;;;;;5069760;28;20528;-62
2021/03/16 01:10:15;;;;;;;18.00;2.50;;;5.80;99.90;;;;;;5076959;28;20443;-62
2021/03/16 01:12:42;;;;;;;1.85;0.20;;;5.80;99.90;;;;;;5074707;28;20686;-62
2021/03/16 01:15:09;;;;;;;3.00;1.25;;;5.80;99.90;;;;;;5074551;28;20735;-63
2021/03/16 01:17:34;;;;;;;4.78;1.77;;;5.80;99.90;;;;;;5073275;28;20180;-63
2021/03/16 01:20:00;;;;;;;1.90;0.30;;;5.70;99.90;;;;;;5069444;28;20204;-65
2021/03/16 01:22:26;;;;;;;5.50;1.07;;;5.70;99.90;;;;;;5065813;28;20937;-62
2021/03/16 01:24:51;;;;;;;3.07;1.33;;;5.70;99.90;;;;;;5076570;28;20204;-62
2021/03/16 01:27:17;;;;;;;4.90;1.53;;;5.70;99.90;;;;;;5071770;28;20223;-62
2021/03/16 01:29:43;;;;;;;3.67;1.77;;;5.60;99.90;;;;;;5069125;28;20192;-62
2021/03/16 01:32:08;;;;;;;2.63;0.83;;;5.60;99.90;;;;;;5075410;28;20223;-62
2021/03/16 01:34:34;;;;;;;7.27;2.23;;;5.60;99.90;;;;;;5072231;28;20345;-63
2021/03/16 01:37:00;;;;;;;4.90;1.33;;;5.60;99.90;;;;;;5075792;28;20551;-62
2021/03/16 01:39:26;;;;;;;2.00;0.30;;;5.60;99.90;;;;;;5071763;28;20185;-62
2021/03/16 01:41:52;;;;;;;2.60;0.77;;;5.60;99.90;;;;;;5070066;28;20184;-62
2021/03/16 01:44:17;;;;;;;2.83;0.97;;;5.60;99.90;;;;;;5073561;28;20291;-62
2021/03/16 01:46:43;;;;;;;2.30;1.07;;;5.50;99.90;;;;;;5068201;28;20659;-63
2021/03/16 01:49:10;;;;;;;5.80;0.97;;;5.60;99.90;;;;;;5071169;28;20223;-62
2021/03/16 01:51:37;;;;;;;5.78;1.42;;;5.60;99.90;;;;;;5079335;28;20471;-62
2021/03/16 01:54:05;;;;;;;2.67;0.90;;;5.60;99.90;;;;;;5074045;28;20204;-62
2021/03/16 01:56:31;;;;;;;7.78;1.70;;;5.60;99.90;;;;;;5067640;28;20191;-62
2021/03/16 01:59:00;;;;;;;1.90;0.40;;;5.60;99.90;;;;;;5059687;28;20201;-62
2021/03/16 02:01:26;;;;;;;2.78;1.10;;;5.60;99.90;;;;;;5063035;28;20231;-62
2021/03/16 02:03:53;;;;;;;6.80;1.53;;;5.60;99.90;;;;;;5063383;28;20212;-62
2021/03/16 02:06:31;;;;;;;1.80;0.20;;;5.70;99.90;;;;;;5069032;28;20615;-62
2021/03/16 02:09:11;;;;;;;3.60;1.83;;;5.70;99.90;;;;;;5067082;28;20180;-62
2021/03/16 02:11:45;;;;;;;2.20;0.73;;;5.70;99.90;;;;;;5066517;28;20196;-62
2021/03/16 02:14:43;;;;;;;3.58;1.88;;;5.70;99.90;;;;;;5069894;28;20192;-62
2021/03/16 02:17:13;;;;;;;2.30;0.60;;;5.70;99.90;;;;;;5051269;28;20212;-61
2021/03/16 02:20:06;;;;;;;1.90;0.28;;;5.70;99.90;;;;;;5064833;28;20299;-62
2021/03/16 02:22:34;;;;;;;3.05;1.20;;;5.70;99.90;;;;;;5068642;28;20200;-62
2021/03/16 02:25:03;;;;;;;2.45;1.08;;;5.60;99.90;;;;;;5072805;28;20205;-63
2021/03/16 02:27:37;;;;;;;5.00;0.60;;;5.60;99.90;;;;;;5074498;28;20263;-66
2021/03/16 02:30:05;;;;;;;1.80;0.20;;;5.60;99.90;;;;;;5072564;28;20651;-63
2021/03/16 02:32:32;;;;;;;8.23;3.92;;;5.70;99.90;;;;;;5072108;28;20192;-62
2021/03/16 02:35:02;;;;;;;1.90;0.50;;;5.60;99.90;;;;;;5075098;28;20283;-62
2021/03/16 02:37:31;;;;;;;5.45;1.90;;;5.60;99.90;;;;;;5072616;28;20200;-62
2021/03/16 02:39:58;;;;;;;2.10;0.52;;;5.50;99.90;;;;;;5067436;28;20259;-63
2021/03/16 02:42:26;;;;;;;6.15;3.08;;;5.60;99.90;;;;;;5070593;28;20188;-62
2021/03/16 02:44:52;;;;;;;4.30;1.55;;;5.50;99.90;;;;;;5069924;28;20188;-62
2021/03/16 02:47:20;;;;;;;3.50;0.95;;;5.50;99.90;;;;;;5067552;28;20177;-62
2021/03/16 02:49:47;;;;;;;2.65;1.27;;;5.50;99.90;;;;;;5068570;28;20234;-62
2021/03/16 02:52:15;;;;;;;5.70;1.80;;;5.50;99.90;;;;;;5067771;28;20243;-62
2021/03/16 02:54:42;;;;;;;2.47;0.68;;;5.50;99.90;;;;;;5071303;28;20207;-62
2021/03/16 02:57:12;;;;;;;3.20;1.30;;;5.50;99.90;;;;;;5090060;28;20333;-63
2021/03/16 02:59:41;;;;;;;4.85;1.10;;;5.50;99.90;;;;;;5061438;28;20950;-62
2021/03/16 03:02:11;;;;;;;2.20;0.55;;;5.40;99.90;;;;;;5070536;28;20177;-62
2021/03/16 03:04:38;;;;;;;5.28;1.33;;;5.40;99.90;;;;;;5063945;28;20197;-62
2021/03/16 03:07:08;;;;;;;2.20;0.63;;;5.30;99.90;;;;;;5066534;28;20203;-62
2021/03/16 03:09:34;;;;;;;3.90;2.35;;;5.30;99.90;;;;;;5067715;28;20753;-62
2021/03/16 03:12:01;;;;;;;2.00;0.40;;;5.30;99.90;;;;;;5046182;28;20601;-63
2021/03/16 03:14:26;;;;;;;10.85;0.98;;;5.30;99.90;;;;;;5070377;28;20220;-63
2021/03/16 03:16:54;;;;;;;2.00;0.40;;;5.30;99.90;;;;;;5070403;28;20219;-62
2021/03/16 03:19:19;;;;;;;2.85;0.88;;;5.30;99.90;;;;;;5069082;28;20216;-63
2021/03/16 03:21:50;;;;;;;2.53;0.50;;;5.30;99.90;;;;;;5078913;28;20173;-63
2021/03/16 03:24:23;;;;;;;1.80;0.20;;;5.30;99.90;;;;;;5090402;28;20235;-63
2021/03/16 03:27:29;;;;;;;6.93;2.00;;;5.40;99.90;;;;;;5089823;28;20180;-63
2021/03/16 03:29:59;;;;;;;1.90;0.30;;;5.40;99.90;;;;;;5073589;28;20176;-63
2021/03/16 03:32:28;;;;;;;1.80;0.20;;;5.40;99.90;;;;;;5092108;28;20185;-63
2021/03/16 03:34:57;;;;;;;1.90;0.38;;;5.40;99.90;;;;;;5089824;28;20188;-63
2021/03/16 03:37:25;;;;;;;5.90;2.28;;;5.40;99.90;;;;;;5072119;28;20198;-63
2021/03/16 03:39:52;;;;;;;2.13;0.68;;;5.40;99.90;;;;;;5077401;28;20208;-63
2021/03/16 03:42:19;;;;;;;3.22;1.48;;;5.40;99.90;;;;;;5076140;28;20173;-63
2021/03/16 03:44:49;;;;;;;2.70;0.85;;;5.40;99.90;;;;;;5075701;28;20221;-62
2021/03/16 03:47:16;;;;;;;3.85;0.65;;;5.40;99.90;;;;;;5075352;28;20269;-63
2021/03/16 03:49:44;;;;;;;6.15;2.20;;;5.40;99.90;;;;;;5066841;28;20686;-63
2021/03/16 03:52:13;;;;;;;4.25;1.35;;;5.40;99.90;;;;;;5075759;28;20650;-63
2021/03/16 03:54:44;;;;;;;2.67;1.05;;;5.40;99.90;;;;;;5087595;28;20208;-63
2021/03/16 03:57:14;;;;;;;4.93;1.85;;;5.40;99.90;;;;;;5098870;28;20172;-63
2021/03/16 03:59:42;;;;;;;3.03;0.40;;;5.40;99.90;;;;;;5092789;28;20226;-63
2021/03/16 04:02:10;;;;;;;2.15;0.70;;;5.40;99.90;;;;;;5094221;28;20177;-63
2021/03/16 04:04:37;;;;;;;3.95;2.35;;;5.40;99.90;;;;;;5084914;28;20283;-63
2021/03/16 04:07:03;;;;;;;5.45;2.17;;;5.40;99.90;;;;;;5080931;28;20185;-63
2021/03/16 04:09:31;;;;;;;2.00;0.40;;;5.40;99.90;;;;;;5093333;28;20227;-64
2021/03/16 04:11:57;;;;;;;3.17;1.00;;;5.40;99.90;;;;;;5066410;28;20845;-62
2021/03/16 04:14:23;;;;;;;4.60;1.98;;;5.30;99.90;;;;;;5068911;28;20350;-62
2021/03/16 04:16:51;;;;;;;6.63;2.78;;;5.30;99.90;;;;;;5069599;28;20267;-62
2021/03/16 04:19:17;;;;;;;4.78;1.70;;;5.30;99.90;;;;;;5070931;28;20253;-63
2021/03/16 04:21:43;;;;;;;2.65;0.52;;;5.30;99.90;;;;;;5079028;28;20645;-62
2021/03/16 04:24:10;;;;;;;1.90;0.30;;;5.30;99.90;;;;;;5066089;28;20289;-62
2021/03/16 04:26:36;;;;;;;3.58;2.03;;;5.30;99.90;;;;;;5070445;28;20204;-62
2021/03/16 04:29:01;;;;;;;7.97;2.20;;;5.30;99.90;;;;;;5073668;28;20639;-63
2021/03/16 04:31:27;;;;;;;2.93;1.30;;;5.40;99.90;;;;;;5070493;28;20185;-62
2021/03/16 04:33:53;;;;;;;3.70;1.47;;;5.40;99.90;;;;;;5071602;28;22015;-63
2021/03/16 04:36:19;;;;;;;2.20;0.70;;;5.30;99.90;;;;;;5071339;28;20189;-63
2021/03/16 04:38:44;;;;;;;2.67;1.37;;;5.30;99.90;;;;;;5068884;28;20216;-63
2021/03/16 04:41:10;;;;;;;2.97;1.50;;;5.30;99.90;;;;;;5072083;28;20648;-63
2021/03/16 04:43:40;;;;;;;1.83;0.20;;;5.30;99.90;;;;;;5071257;28;20559;-63
2021/03/16 04:46:06;;;;;;;1.80;0.20;;;5.30;99.90;;;;;;5070890;28;20184;-62
2021/03/16 04:48:32;;;;;;;1.90;0.40;;;5.30;99.90;;;;;;5071055;28;20272;-62
2021/03/16 04:50:58;;;;;;;10.13;2.30;;;5.30;99.90;;;;;;5068486;28;20534;-63
2021/03/16 04:53:23;;;;;;;1.90;0.30;;;5.30;99.90;;;;;;5064913;28;20292;-63
2021/03/16 04:55:49;;;;;;;5.10;2.13;;;5.30;99.90;;;;;;5072948;28;20188;-62
2021/03/16 04:58:15;;;;;;;1.87;0.20;;;5.30;99.90;;;;;;5069442;28;20275;-63
2021/03/16 05:00:40;;;;;;;1.80;0.20;;;5.30;99.90;;;;;;5067123;28;20699;-62
2021/03/16 05:03:06;;;;;;;3.37;1.57;;;5.40;99.90;;;;;;5065465;28;20212;-62
2021/03/16 05:05:32;;;;;;;2.10;0.67;;;5.40;99.90;;;;;;5076412;28;20183;-62
2021/03/16 05:07:57;;;;;;;5.47;1.53;;;5.40;99.90;;;;;;5082713;28;20180;-62
2021/03/16 05:10:23;;;;;;;2.30;0.93;;;5.30;99.90;;;;;;5085000;28;20264;-62
2021/03/16 05:12:49;;;;;;;1.80;0.20;;;5.30;99.90;;;;;;5070170;28;20192;-62
2021/03/16 05:15:15;;;;;;;1.83;0.20;;;5.40;99.90;;;;;;5070186;28;20265;-63
2021/03/16 05:17:41;;;;;;;5.70;2.63;;;5.40;99.90;;;;;;5072011;28;20703;-63
2021/03/16 05:20:07;;;;;;;1.80;0.20;;;5.40;99.90;;;;;;5065405;28;20550;-63
2021/03/16 05:22:33;;;;;;;7.43;2.78;;;5.40;99.90;;;;;;5070155;28;20263;-62
2021/03/16 05:24:59;;;;;;;1.90;0.32;;;5.30;99.90;;;;;;5070646;28;20208;-62
2021/03/16 05:27:25;;;;;;;2.40;0.95;;;5.30;99.90;;;;;;5067700;28;20227;-62
2021/03/16 05:29:51;;;;;;;6.37;1.67;;;5.30;99.90;;;;;;5071566;28;20906;-62
2021/03/16 05:32:18;;;;;;;5.73;2.43;;;5.30;99.90;;;;;;5070037;28;20184;-62
2021/03/16 05:34:44;;;;;;;4.97;2.35;;;5.30;99.90;;;;;;5069667;28;20265;-62
2021/03/16 05:37:10;;;;;;;5.40;1.27;;;5.30;99.90;;;;;;5053378;28;20199;-62
2021/03/16 05:39:36;;;;;;;4.70;2.20;;;5.30;99.90;;;;;;5068457;28;20212;-63
2021/03/16 05:42:02;;;;;;;1.87;0.20;;;5.30;99.90;;;;;;5068295;28;20184;-62
2021/03/16 05:44:28;;;;;;;4.00;0.80;;;5.40;99.90;;;;;;5067744;28;20263;-62
2021/03/16 05:46:54;;;;;;;4.03;2.67;;;5.40;99.90;;;;;;5070794;28;20184;-62
2021/03/16 05:49:23;;;;;;;18.83;2.17;;;5.40;99.90;;;;;;5069939;28;20181;-63
2021/03/16 05:51:49;;;;;;;2.63;1.00;;;5.30;99.90;;;;;;5064537;28;20839;-63
2021/03/16 05:54:17;;;;;;;6.40;3.15;;;5.40;99.90;;;;;;5067389;28;20284;-62
2021/03/16 05:56:43;;;;;;;3.65;1.55;;;5.30;99.90;;;;;;5070520;28;20675;-62
2021/03/16 05:59:09;;;;;;;3.45;1.75;;;5.40;99.90;;;;;;5067971;28;20563;-62
2021/03/16 06:01:35;;;;;;;2.45;1.23;;;5.40;99.90;;;;;;5065171;28;20538;-62
2021/03/16 06:04:03;;;;;;;1.80;0.20;;;5.40;99.90;;;;;;5071136;28;20283;-62
2021/03/16 06:06:32;;;;;;;4.25;1.40;;;5.40;99.90;;;;;;5069781;28;20675;-62
2021/03/16 06:08:58;;;;;;;4.55;2.72;;;5.50;99.90;;;;;;5047464;28;20214;-62
2021/03/16 06:11:25;;;;;;;4.00;1.98;;;5.40;99.90;;;;;;5071043;28;20185;-62
2021/03/16 06:13:55;;;;;;;2.80;0.73;;;5.50;99.90;;;;;;5072444;28;21501;-63
2021/03/16 06:16:25;;;;;;;7.75;2.50;;;5.50;99.90;;;;;;5065526;28;20598;-62
2021/03/16 06:18:51;;;;;;;5.63;1.45;;;5.50;99.90;;;;;;5070507;28;20199;-63
2021/03/16 06:21:19;;;;;;;3.15;1.88;;;5.50;99.90;;;;;;5074979;28;20645;-62
2021/03/16 06:23:52;;;;;;;4.43;2.10;;;5.50;99.90;;;;;;5070721;28;20204;-62
2021/03/16 06:26:18;;;;;;;3.40;1.75;;;5.50;99.90;;;;;;5070625;28;20269;-63
2021/03/16 06:28:44;;;;;;;1.80;0.20;;;5.60;99.90;;;;;;5070562;28;20184;-64
2021/03/16 06:31:23;;;;;;;1.80;0.20;;;5.60;99.90;;;;;;5068647;28;20660;-63
2021/03/16 06:33:49;;;;;;;6.38;1.85;;;5.70;99.90;;;;;;5068823;28;20192;-62
2021/03/16 06:36:15;;;;;;;1.97;0.60;;;5.60;99.90;;;;;;5065838;28;20183;-62
2021/03/16 06:38:40;;;;;;;1.90;0.20;;;5.50;99.90;;;;;;5066601;28;20437;-63
2021/03/16 06:41:17;;;;;;;3.70;2.20;;;5.60;99.90;;;;;;5067765;28;20439;-63
2021/03/16 06:43:59;;;;;;;2.55;1.42;;;5.60;99.90;;;;;;5074901;28;20215;-63
2021/03/16 06:46:34;;;;;;;3.97;1.60;;;5.60;99.90;;;;;;5068532;28;20220;-62
2021/03/16 06:49:10;;;;;;;1.98;0.47;;;5.60;99.90;;;;;;5065806;28;20240;-63
2021/03/16 06:51:36;;;;;;;3.13;1.67;;;5.60;99.90;;;;;;5079632;28;20194;-63
2021/03/16 06:54:13;;;;;;;2.00;0.50;;;5.70;99.90;;;;;;5062419;28;20208;-62
2021/03/16 06:56:39;;;;;;;2.67;0.93;;;5.80;99.90;;;;;;5069944;28;20192;-62
2021/03/16 06:59:06;;;;;;;2.33;1.10;;;5.80;99.90;;;;;;5064105;28;20212;-62
2021/03/16 07:01:37;;;;;;;3.70;1.33;;;5.80;99.90;;;;;;5066537;28;20430;-63
2021/03/16 07:04:19;;;;;;;2.05;0.70;;;5.80;99.90;;;;;;5063038;28;20212;-63
2021/03/16 07:06:45;;;;;;;1.80;0.20;;;5.90;99.90;;;;;;5071524;28;20180;-63
2021/03/16 07:09:12;;;;;;;10.48;2.30;;;5.90;99.90;;;;;;5063729;28;20370;-62
2021/03/16 07:11:47;;;;;;;4.90;1.90;;;5.80;99.90;;;;;;5066766;28;20306;-63
2021/03/16 07:14:14;;;;;;;5.18;3.00;;;5.80;99.90;;;;;;5067560;28;20265;-63
2021/03/16 07:16:45;;;;;;;9.38;3.20;;;5.90;99.90;;;;;;5068455;28;20192;-63
2021/03/16 07:19:11;;;;;;;6.10;2.10;;;5.90;99.90;;;;;;5088960;28;20238;-63
2021/03/16 07:21:45;;;;;;;5.18;2.20;;;5.90;99.90;;;;;;5079021;28;20181;-63
2021/03/16 07:24:12;;;;;;;7.35;2.75;;;5.90;99.90;;;;;;5061792;28;20247;-63
2021/03/16 07:26:39;;;;;;;3.97;0.93;;;5.90;99.90;;;;;;5072008;28;20180;-65
2021/03/16 07:29:09;;;;;;;5.32;3.05;;;5.90;99.90;;;;;;5070984;28;20449;-61
2021/03/16 07:31:37;;;;;;;7.57;2.45;;;5.90;99.90;;;;;;5069188;28;20211;-62
2021/03/16 07:34:08;;;;;;;7.47;2.60;;;5.90;99.90;;;;;;5062896;28;20209;-61
2021/03/16 07:36:35;;;;;;;8.32;7.05;;;5.90;99.90;;;;;;5065167;28;20196;-61
2021/03/16 07:39:05;;;;;;;4.53;1.33;;;5.90;99.90;;;;;;5065611;28;20699;-62
2021/03/16 07:41:32;;;;;;;3.20;1.83;;;5.90;99.90;;;;;;5053859;28;20292;-63
2021/03/16 07:44:09;;;;;;;5.65;1.30;;;5.90;99.90;;;;;;5067919;28;20211;-62
2021/03/16 07:46:47;;;;;;;3.70;1.77;;;6.00;99.90;;;;;;5072130;28;20727;-62
2021/03/16 07:49:15;;;;;;;4.40;2.20;;;6.00;99.90;;;;;;5072526;28;20184;-61
2021/03/16 07:51:43;;;;;;;3.35;1.05;;;6.00;99.90;;;;;;5072531;28;20196;-60
2021/03/16 07:54:09;;;;;;;4.20;2.60;;;6.00;99.90;;;;;;5072505;28;20200;-61
2021/03/16 07:56:36;;;;;;;4.90;2.47;;;6.00;99.90;;;;;;5074286;28;20184;-61
2021/03/16 07:59:04;;;;;;;4.40;2.28;;;6.00;99.90;;;;;;5073429;28;20201;-60
2021/03/16 08:01:31;;;;;;;5.63;2.35;;;6.00;99.90;;;;;;5072624;28;20714;-61
2021/03/16 08:04:10;;;;;;;1.88;0.20;;;6.00;99.90;;;;;;5053130;28;20208;-61
2021/03/16 08:06:36;;;;;;;2.33;0.93;;;6.00;99.90;;;;;;5074713;28;20425;-61
2021/03/16 08:09:17;;;;;;;2.30;0.73;;;6.10;99.90;;;;;;5054267;28;20693;-60
2021/03/16 08:11:43;;;;;;;7.73;2.10;;;6.10;99.90;;;;;;5071555;28;20455;-61
2021/03/16 08:14:09;;;;;;;1.87;0.20;;;6.20;99.90;;;;;;5074540;28;20470;-61
2021/03/16 08:16:43;;;;;;;2.00;0.60;;;6.20;99.90;;;;;;5067437;28;20949;-61
2021/03/16 08:19:18;;;;;;;2.50;0.82;;;6.20;99.90;;;;;;5077249;28;20568;-61
2021/03/16 08:21:45;;;;;;;1.90;0.20;;;6.20;99.90;;;;;;5070027;28;20184;-61
2021/03/16 08:24:15;;;;;;;5.53;2.30;;;6.20;99.90;;;;;;5065067;28;20478;-60
2021/03/16 08:26:49;;;;;;;4.87;2.20;;;6.20;99.90;;;;;;5073509;28;20189;-62
2021/03/16 08:29:16;;;;;;;2.90;1.17;;;6.20;99.90;;;;;;5074044;28;20446;-61
2021/03/16 08:31:42;;;;;;;2.80;1.43;;;6.20;99.90;;;;;;5075247;28;20436;-61
2021/03/16 08:34:09;;;;;;;3.78;0.70;;;6.30;99.90;;;;;;5074989;28;20462;-61
2021/03/16 08:36:42;;;;;;;2.83;1.13;;;6.40;99.90;;;;;;5073250;28;20196;-60
2021/03/16 08:39:09;;;;;;;7.70;3.00;;;6.30;99.90;;;;;;5069504;28;20463;-61
2021/03/16 08:41:35;;;;;;;3.28;1.33;;;6.30;99.90;;;;;;5073799;28;20464;-62
2021/03/16 08:44:01;;;;;;;3.13;1.30;;;6.30;99.90;;;;;;5068846;28;20204;-61
2021/03/16 08:46:34;;;;;;;2.13;0.77;;;6.30;99.90;;;;;;5068490;28;20477;-61
2021/03/16 08:49:00;;;;;;;7.83;2.20;;;6.30;99.90;;;;;;5071200;28;20557;-61
2021/03/16 08:51:27;;;;;;;2.35;0.57;;;6.30;99.90;;;;;;5072322;28;20435;-61
2021/03/16 08:53:54;;;;;;;2.60;1.05;;;6.30;99.90;;;;;;5071802;28;20229;-60
2021/03/16 08:56:21;;;;;;;6.47;2.25;;;6.30;99.90;;;;;;5075783;28;20184;-61
2021/03/16 08:58:47;;;;;;;6.70;2.85;;;6.30;99.90;;;;;;5069179;28;20180;-62
2021/03/16 09:01:23;;;;;;;2.00;0.73;;;6.30;99.90;;;;;;5072912;28;20200;-61
2021/03/16 09:03:49;;;;;;;4.50;1.73;;;6.20;99.90;;;;;;5076196;28;20446;-60
2021/03/16 09:06:21;;;;;;;3.27;1.70;;;6.20;99.90;;;;;;5070664;28;20797;-60
2021/03/16 09:08:51;;;;;;;2.00;0.40;;;6.20;99.90;;;;;;5077180;28;20215;-60
2021/03/16 09:11:32;;;;;;;1.90;0.20;;;6.20;99.90;;;;;;5073375;28;20190;-61
2021/03/16 09:14:10;;;;;;;6.57;2.75;;;6.30;99.90;;;;;;5070586;28;20462;-61
2021/03/16 09:16:45;;;;;;;5.15;2.55;;;6.30;99.90;;;;;;5067269;28;20643;-61
2021/03/16 09:19:14;;;;;;;1.90;0.20;;;6.40;99.90;;;;;;5064820;28;20238;-61
2021/03/16 09:22:01;;;;;;;1.90;0.40;;;6.50;99.90;;;;;;5052861;28;20543;-61
2021/03/16 09:24:29;;;;;;;2.50;1.10;;;6.50;99.90;;;;;;5065692;28;20205;-61
2021/03/16 09:27:00;;;;;;;1.90;0.20;;;6.60;99.90;;;;;;5075915;28;20550;-60
2021/03/16 09:29:30;;;;;;;1.90;0.20;;;6.60;99.90;;;;;;5081516;28;20458;-62
2021/03/16 09:31:59;;;;;;;4.57;1.43;;;6.60;99.90;;;;;;5078082;28;20564;-61
2021/03/16 09:34:26;;;;;;;3.33;1.40;;;6.50;99.90;;;;;;5068283;28;20825;-61
2021/03/16 09:37:04;;;;;;;1.90;0.20;;;6.60;99.90;;;;;;5069000;28;20455;-61
2021/03/16 09:39:31;;;;;;;1.90;0.20;;;6.60;99.90;;;;;;5066384;28;20957;-59
2021/03/16 09:41:59;;;;;;;2.40;0.60;;;6.70;99.90;;;;;;5072098;28;20782;-61
2021/03/16 09:44:29;;;;;;;4.73;1.90;;;6.80;99.90;;;;;;5066143;28;21215;-60
2021/03/16 09:46:54;;;;;;;1.90;0.20;;;6.80;99.90;;;;;;5070156;28;20523;-60
2021/03/16 09:49:36;;;;;;;1.90;0.20;;;6.80;99.90;;;;;;5068531;28;20550;-60
2021/03/16 09:52:04;;;;;;;4.17;0.93;;;6.80;99.90;;;;;;5069199;28;20184;-60
2021/03/16 09:54:56;;;;;;;3.60;0.50;;;6.80;99.90;;;;;;5072163;28;20470;-59
2021/03/16 09:57:29;;;;;;;3.73;2.30;;;6.90;99.90;;;;;;5065687;28;20960;-60
2021/03/16 09:59:56;;;;;;;3.83;1.57;;;7.10;99.90;;;;;;5075101;28;20471;-60
2021/03/16 10:02:30;;;;;;;2.37;1.10;;;7.10;99.90;;;;;;5069070;28;20467;-61
2021/03/16 10:04:55;;;;;;;1.90;0.20;;;7.10;99.90;;;;;;5071304;28;20467;-60
2021/03/16 10:07:28;;;;;;;5.10;2.77;;;7.10;99.90;;;;;;5070558;28;20446;-60
2021/03/16 10:09:54;;;;;;;1.90;0.20;;;7.10;99.90;;;;;;5069842;28;20188;-60
2021/03/16 10:12:22;;;;;;;3.50;2.80;;;7.00;99.90;;;;;;5090937;28;20438;-60
2021/03/16 10:14:52;;;;;;;1.90;0.30;;;7.10;99.90;;;;;;5072078;28;20511;-60
2021/03/16 10:17:30;;;;;;;1.90;0.20;;;7.00;99.90;;;;;;5089147;28;20442;-64
2021/03/16 10:19:59;;;;;;;2.20;0.50;;;7.10;99.90;;;;;;5092129;28;20451;-61
2021/03/16 10:22:29;;;;;;;2.77;1.17;;;7.10;99.90;;;;;;5097331;28;20445;-62
2021/03/16 10:25:09;;;;;;;1.90;0.20;;;7.10;99.90;;;;;;5097311;28;20453;-61
2021/03/16 10:27:34;;;;;;;6.83;1.47;;;7.10;99.90;;;;;;5098776;28;20422;-60
2021/03/16 10:30:08;;;;;;;2.80;1.33;;;7.00;99.90;;;;;;5092529;28;20572;-61
2021/03/16 10:32:34;;;;;;;2.00;0.50;;;7.10;99.90;;;;;;5068728;28;20196;-62
2021/03/16 10:35:00;;;;;;;3.70;0.93;;;7.10;99.90;;;;;;5094264;28;20469;-61
2021/03/16 10:37:26;;;;;;;3.37;1.00;;;7.20;99.90;;;;;;5085820;28;20213;-61
2021/03/16 10:39:53;;;;;;;1.90;0.30;;;7.20;99.90;;;;;;5083102;28;20212;-61
2021/03/16 10:42:20;;;;;;;2.20;0.43;;;7.20;99.90;;;;;;5089031;28;20429;-60
2021/03/16 10:44:45;;;;;;;4.53;2.30;;;7.30;99.90;;;;;;5087118;28;20474;-61
2021/03/16 10:47:11;;;;;;;2.00;0.30;;;7.30;99.90;;;;;;5089322;28;20462;-63
2021/03/16 10:49:37;;;;;;;2.00;0.40;;;7.30;99.90;;;;;;5078481;28;20189;-61
2021/03/16 10:52:03;;;;;;;9.60;3.03;;;7.30;99.90;;;;;;5075234;28;20448;-61
2021/03/16 10:54:30;;;;;;;1.90;0.20;;;7.30;99.90;;;;;;5058227;28;20216;-60
2021/03/16 10:56:56;;;;;;;8.13;2.20;;;7.30;99.90;;;;;;5075450;28;20840;-61
2021/03/16 10:59:23;;;;;;;2.77;0.73;;;7.30;99.90;;;;;;5072410;28;20462;-61
2021/03/16 11:01:49;;;;;;;8.07;2.50;;;7.40;99.90;;;;;;5086907;28;20214;-61
2021/03/16 11:04:17;;;;;;;4.17;1.90;;;7.40;99.90;;;;;;5096842;28;20445;-61
2021/03/16 11:06:44;;;;;;;5.80;2.20;;;7.50;99.90;;;;;;5091817;28;20462;-61
2021/03/16 11:09:09;;;;;;;1.90;0.20;;;7.50;99.90;;;;;;5091054;28;20580;-61
2021/03/16 11:11:35;;;;;;;2.57;0.80;;;7.50;99.90;;;;;;5093828;28;20438;-61
2021/03/16 11:14:00;;;;;;;1.90;0.20;;;7.60;99.90;;;;;;5092033;28;20218;-61
2021/03/16 11:16:26;;;;;;;5.30;3.50;;;7.60;99.90;;;;;;5090357;28;20184;-61
2021/03/16 11:18:51;;;;;;;2.40;0.73;;;7.70;99.90;;;;;;5094030;28;20181;-62
2021/03/16 11:21:18;;;;;;;10.27;3.50;;;7.70;99.90;;;;;;5088625;28;20215;-61
2021/03/16 11:23:43;;;;;;;7.40;2.60;;;7.60;99.90;;;;;;5094643;28;20212;-60
2021/03/16 11:26:09;;;;;;;8.90;4.17;;;7.60;99.90;;;;;;5086415;28;20441;-61
2021/03/16 11:28:34;;;;;;;2.80;1.77;;;7.50;99.90;;;;;;5089626;28;20189;-61
2021/03/16 11:31:00;;;;;;;5.73;0.93;;;7.40;99.90;;;;;;5091515;28;20169;-62
2021/03/16 11:33:25;;;;;;;2.67;1.13;;;7.30;99.90;;;;;;5084665;28;20269;-60
2021/03/16 11:35:51;;;;;;;4.10;1.93;;;7.40;99.90;;;;;;5059273;28;20208;-61
2021/03/16 11:38:17;;;;;;;6.43;1.87;;;7.40;99.90;;;;;;5083603;28;20745;-60
2021/03/16 11:40:43;;;;;;;3.20;1.67;;;7.50;99.90;;;;;;5082548;28;20306;-59
2021/03/16 11:43:08;;;;;;;4.93;2.13;;;7.50;99.90;;;;;;5083781;28;20244;-59
2021/03/16 11:45:34;;;;;;;8.23;1.80;;;7.60;99.90;;;;;;5079651;28;20449;-59
2021/03/16 11:47:59;;;;;;;2.77;1.37;;;7.60;99.90;;;;;;5086187;28;20284;-59
2021/03/16 11:50:25;;;;;;;3.50;0.90;;;7.80;99.90;;;;;;5083614;28;20196;-59
2021/03/16 11:52:51;;;;;;;2.10;0.57;;;7.80;99.90;;;;;;5082454;28;20196;-60
2021/03/16 11:55:17;;;;;;;2.63;0.97;;;7.90;99.90;;;;;;5066540;28;20185;-60
2021/03/16 11:57:42;;;;;;;5.27;2.13;;;7.90;99.90;;;;;;5080439;28;20702;-60
2021/03/16 12:00:08;;;;;;;5.80;2.13;;;7.90;99.90;;;;;;5058922;28;20410;-62
2021/03/16 12:02:35;;;;;;;2.40;0.70;;;7.80;99.90;;;;;;5074309;28;20193;-61
2021/03/16 12:05:01;;;;;;;1.97;0.20;;;7.80;99.90;;;;;;5075257;28;20456;-62
2021/03/16 12:07:27;;;;;;;5.10;2.00;;;7.90;99.90;;;;;;5055854;28;20467;-62
2021/03/16 12:09:55;;;;;;;1.90;0.30;;;7.80;99.90;;;;;;5084587;28;20823;-63
2021/03/16 12:12:20;;;;;;;1.90;0.20;;;7.80;99.90;;;;;;5077514;28;20446;-62
2021/03/16 12:14:46;;;;;;;4.50;1.50;;;7.90;99.90;;;;;;5086339;28;20470;-62
2021/03/16 12:17:12;;;;;;;2.30;0.87;;;8.00;99.90;;;;;;5089329;28;20181;-62
2021/03/16 12:19:38;;;;;;;2.30;0.77;;;8.20;99.90;;;;;;5080119;28;20216;-62
2021/03/16 12:22:04;;;;;;;8.97;1.90;;;8.20;99.90;;;;;;5077701;28;20457;-61
2021/03/16 12:24:30;;;;;;;1.90;0.30;;;8.20;99.90;;;;;;5075645;28;20486;-62
2021/03/16 12:26:56;;;;;;;2.63;0.80;;;8.30;99.90;;;;;;5075312;28;20517;-62
2021/03/16 12:29:21;;;;;;;5.37;1.67;;;8.30;99.90;;;;;;5070384;28;20185;-62
2021/03/16 12:31:47;;;;;;;6.80;1.97;;;8.30;99.90;;;;;;5076024;28;20661;-61
2021/03/16 12:34:12;;;;;;;3.00;1.30;;;8.30;99.90;;;;;;5073219;28;20212;-61
2021/03/16 12:36:38;;;;;;;3.23;0.57;;;8.30;99.90;;;;;;5070743;28;20237;-63
2021/03/16 12:39:03;;;;;;;1.90;0.20;;;8.30;99.90;;;;;;5073475;28;20189;-60
2021/03/16 12:41:29;;;;;;;7.10;3.53;;;8.30;99.90;;;;;;5075528;28;20188;-61
2021/03/16 12:43:54;;;;;;;1.90;0.20;;;8.30;99.90;;;;;;5076421;28;20454;-62
2021/03/16 12:46:20;;;;;;;2.37;0.50;;;8.40;99.90;;;;;;5073322;28;20169;-61
2021/03/16 12:48:46;;;;;;;1.90;0.20;;;8.50;99.90;;;;;;5070812;28;20190;-61
2021/03/16 12:51:12;;;;;;;2.80;1.17;;;8.50;99.90;;;;;;5073600;28;20180;-61
2021/03/16 12:53:37;;;;;;;3.60;0.80;;;8.40;99.90;;;;;;5061368;28;20690;-61
2021/03/16 12:56:03;;;;;;;2.77;1.00;;;8.40;99.90;;;;;;5074852;28;20194;-61
2021/03/16 12:58:29;;;;;;;4.97;0.80;;;8.40;99.90;;;;;;5076981;28;20197;-61
2021/03/16 13:00:54;;;;;;;2.37;1.17;;;8.50;99.90;;;;;;5073941;28;20204;-63
2021/03/16 13:03:20;;;;;;;1.90;0.20;;;8.50;99.90;;;;;;5072266;28;20239;-61